createdAt,value
2022-09-07T00:00:57.783Z,1.40
2022-09-07T00:03:24.645Z,1.70
2022-09-07T00:05:52.446Z,1.88
2022-09-07T00:08:22.873Z,2.10
2022-09-07T00:10:58.564Z,1.55
2022-09-07T00:13:27.660Z,1.77
2022-09-07T00:15:54.327Z,1.90
2022-09-07T00:18:21.290Z,2.25
2022-09-07T00:20:47.818Z,2.08
2022-09-07T00:23:14.265Z,2.08
2022-09-07T00:25:40.832Z,2.30
2022-09-07T00:28:08.481Z,2.13
2022-09-07T00:30:41.109Z,2.17
2022-09-07T00:33:07.656Z,2.38
2022-09-07T00:35:39.017Z,2.40
2022-09-07T00:38:05.523Z,2.38
2022-09-07T00:40:32.198Z,2.40
2022-09-07T00:42:58.644Z,1.75
2022-09-07T00:45:25.377Z,2.22
2022-09-07T00:47:56.827Z,2.22
2022-09-07T00:50:38.177Z,2.10
2022-09-07T00:53:17.013Z,1.80
2022-09-07T00:55:47.364Z,2.00
2022-09-07T00:58:14.111Z,2.20
2022-09-07T01:00:41.969Z,2.40
2022-09-07T01:03:10.494Z,2.00
2022-09-07T01:05:43.538Z,2.20
2022-09-07T01:08:12.111Z,2.47
2022-09-07T01:10:38.777Z,2.03
2022-09-07T01:13:05.913Z,1.92
2022-09-07T01:15:53.548Z,2.28
2022-09-07T01:18:49.074Z,2.10
2022-09-07T01:21:22.854Z,1.80
2022-09-07T01:24:24.516Z,2.00
2022-09-07T01:27:25.690Z,1.60
2022-09-07T01:30:11.312Z,1.80
2022-09-07T01:33:02.301Z,1.70
2022-09-07T01:35:34.626Z,1.80
2022-09-07T01:38:19.787Z,1.38
2022-09-07T01:40:52.173Z,1.38
2022-09-07T01:43:47.334Z,1.17
2022-09-07T01:46:26.595Z,1.23
2022-09-07T01:48:55.834Z,1.58
2022-09-07T01:51:28.054Z,1.50
2022-09-07T01:53:59.205Z,1.30
2022-09-07T01:56:33.318Z,1.48
2022-09-07T01:59:14.492Z,1.40
2022-09-07T02:01:47.710Z,1.70
2022-09-07T02:04:27.280Z,1.67
2022-09-07T02:07:14.380Z,1.60
2022-09-07T02:09:54.753Z,1.88
2022-09-07T02:12:26.814Z,2.03
2022-09-07T02:14:59.917Z,1.50
2022-09-07T02:17:33.979Z,1.60
2022-09-07T02:20:09.393Z,1.70
2022-09-07T02:22:42.173Z,1.90
2022-09-07T02:25:12.462Z,1.63
2022-09-07T02:28:00.765Z,1.50
2022-09-07T02:30:27.345Z,1.45
2022-09-07T02:32:56.287Z,1.55
2022-09-07T02:35:23.012Z,1.50
2022-09-07T02:37:51.683Z,1.80
2022-09-07T02:40:18.405Z,1.70
2022-09-07T02:42:47.297Z,1.73
2022-09-07T02:45:15.980Z,1.10
2022-09-07T02:47:42.364Z,1.75
2022-09-07T02:50:12.900Z,1.30
2022-09-07T02:52:50.881Z,1.30
2022-09-07T02:55:44.801Z,1.30
2022-09-07T02:58:17.280Z,1.38
2022-09-07T03:00:52.994Z,1.30
2022-09-07T03:03:40.932Z,1.20
2022-09-07T03:06:17.472Z,1.40
2022-09-07T03:08:51.041Z,1.30
2022-09-07T03:11:17.965Z,1.40
2022-09-07T03:13:44.401Z,1.20
2022-09-07T03:16:14.881Z,1.40
2022-09-07T03:18:43.071Z,1.40
2022-09-07T03:21:10.599Z,1.33
2022-09-07T03:23:37.748Z,1.10
2022-09-07T03:26:05.042Z,1.10
2022-09-07T03:28:31.695Z,1.40
2022-09-07T03:30:58.511Z,1.10
2022-09-07T03:33:25.093Z,1.33
2022-09-07T03:36:02.478Z,1.38
2022-09-07T03:38:30.412Z,1.30
2022-09-07T03:41:01.992Z,1.13
2022-09-07T03:43:29.722Z,1.15
2022-09-07T03:45:58.514Z,1.20
2022-09-07T03:48:25.306Z,1.10
2022-09-07T03:51:07.161Z,1.20
2022-09-07T03:53:35.684Z,1.17
2022-09-07T03:56:05.334Z,1.20
2022-09-07T03:58:33.605Z,1.52
2022-09-07T04:01:04.857Z,1.50
2022-09-07T04:03:31.385Z,1.52
2022-09-07T04:06:02.344Z,1.27
2022-09-07T04:08:31.069Z,1.65
2022-09-07T04:10:59.293Z,1.40
2022-09-07T04:13:27.265Z,1.27
2022-09-07T04:15:54.120Z,1.55
2022-09-07T04:18:21.077Z,1.30
2022-09-07T04:20:48.074Z,1.55
2022-09-07T04:23:14.519Z,1.40
2022-09-07T04:25:48.496Z,1.48
2022-09-07T04:28:16.273Z,1.40
2022-09-07T04:30:42.782Z,1.23
2022-09-07T04:33:09.925Z,2.40
2022-09-07T04:35:37.649Z,1.30
2022-09-07T04:38:04.658Z,1.60
2022-09-07T04:40:31.282Z,1.42
2022-09-07T04:42:57.789Z,1.23
2022-09-07T04:45:24.532Z,1.40
2022-09-07T04:47:51.518Z,1.50
2022-09-07T04:50:18.325Z,1.48
2022-09-07T04:52:45.653Z,1.52
2022-09-07T04:55:12.659Z,2.07
2022-09-07T04:57:39.380Z,1.52
2022-09-07T05:00:13.141Z,1.58
2022-09-07T05:02:39.655Z,1.40
2022-09-07T05:05:06.749Z,1.63
2022-09-07T05:07:33.502Z,1.60
2022-09-07T05:10:00.233Z,1.70
2022-09-07T05:12:26.725Z,1.92
2022-09-07T05:14:53.931Z,1.75
2022-09-07T05:17:20.406Z,1.40
2022-09-07T05:19:48.386Z,1.43
2022-09-07T05:22:14.955Z,1.80
2022-09-07T05:24:41.401Z,1.40
2022-09-07T05:27:07.868Z,1.60
2022-09-07T05:32:20.791Z,1.80
2022-09-07T05:34:49.633Z,1.60
2022-09-07T05:37:17.437Z,1.70
2022-09-07T05:39:44.134Z,1.70
2022-09-07T05:42:10.715Z,1.70
2022-09-07T05:44:45.343Z,1.93
2022-09-07T05:47:12.866Z,1.80
2022-09-07T05:49:39.674Z,1.75
2022-09-07T05:52:06.316Z,1.27
2022-09-07T05:54:32.828Z,1.92
2022-09-07T05:56:59.301Z,2.10
2022-09-07T05:59:25.801Z,2.40
2022-09-07T06:01:52.394Z,2.45
2022-09-07T06:04:19.060Z,2.35
2022-09-07T06:07:04.631Z,2.75
2022-09-07T06:09:32.046Z,3.00
2022-09-07T06:11:58.544Z,3.10
2022-09-07T06:14:25.072Z,2.92
2022-09-07T06:16:51.642Z,2.95
2022-09-07T06:19:18.259Z,3.17
2022-09-07T06:21:44.788Z,3.17
2022-09-07T06:24:11.411Z,3.63
2022-09-07T06:26:37.867Z,3.30
2022-09-07T06:29:04.716Z,3.33
2022-09-07T06:31:31.507Z,3.65
2022-09-07T06:33:58.818Z,3.43
2022-09-07T06:36:29.947Z,3.50
2022-09-07T06:38:58.983Z,3.60
2022-09-07T06:44:15.194Z,3.65
2022-09-07T06:49:28.102Z,4.25
2022-09-07T06:51:54.852Z,4.10
2022-09-07T06:57:10.755Z,5.20
2022-09-07T06:59:37.790Z,5.17
2022-09-07T07:02:09.816Z,5.15
2022-09-07T07:04:40.632Z,6.00
2022-09-07T07:07:12.328Z,6.43
2022-09-07T07:09:39.295Z,6.05
2022-09-07T07:12:06.250Z,6.67
2022-09-07T07:14:34.611Z,6.32
2022-09-07T07:17:02.811Z,6.65
2022-09-07T07:19:29.396Z,6.85
2022-09-07T07:22:29.451Z,6.40
2022-09-07T07:24:42.305Z,6.97
2022-09-07T07:27:08.759Z,6.68
2022-09-07T07:29:35.230Z,6.22
2022-09-07T07:32:01.931Z,7.00
2022-09-07T07:34:46.862Z,6.63
2022-09-07T07:37:14.387Z,7.33
2022-09-07T07:42:28.092Z,7.82
2022-09-07T07:47:42.011Z,7.25
2022-09-07T07:55:43.297Z,7.70
2022-09-07T07:58:10.146Z,7.75
2022-09-07T08:00:52.923Z,7.38
2022-09-07T08:03:21.925Z,7.67
2022-09-07T08:05:48.646Z,7.05
2022-09-07T08:08:15.510Z,7.93
2022-09-07T08:10:41.987Z,7.85
2022-09-07T08:13:08.480Z,7.82
2022-09-07T08:15:44.400Z,7.30
2022-09-07T08:18:16.054Z,8.40
2022-09-07T08:20:43.244Z,8.80
2022-09-07T08:23:10.182Z,8.68
2022-09-07T08:25:36.938Z,9.60
2022-09-07T08:28:04.156Z,9.50
2022-09-07T08:30:30.972Z,10.38
2022-09-07T08:32:57.400Z,9.52
2022-09-07T08:35:23.967Z,9.50
2022-09-07T08:37:50.376Z,9.98
2022-09-07T08:40:18.398Z,9.67
2022-09-07T08:42:51.869Z,10.02
2022-09-07T08:45:28.908Z,9.45
2022-09-07T08:47:55.493Z,9.30
2022-09-07T08:50:29.801Z,9.50
2022-09-07T08:53:17.543Z,9.63
2022-09-07T08:55:53.240Z,9.95
2022-09-07T08:58:48.234Z,8.93
2022-09-07T09:01:34.507Z,9.30
2022-09-07T09:04:18.401Z,9.18
2022-09-07T09:07:03.515Z,9.27
2022-09-07T09:10:06.944Z,8.98
2022-09-07T09:12:40.411Z,8.88
2022-09-07T09:15:18.058Z,9.60
2022-09-07T09:17:47.792Z,8.93
2022-09-07T09:20:44.204Z,8.80
2022-09-07T09:23:14.254Z,8.93
2022-09-07T09:25:55.509Z,8.60
2022-09-07T09:28:23.511Z,9.10
2022-09-07T09:30:51.227Z,7.97
2022-09-07T09:33:22.237Z,8.30
2022-09-07T09:35:53.814Z,8.15
2022-09-07T09:38:29.226Z,8.18
2022-09-07T09:40:58.295Z,7.68
2022-09-07T09:43:29.220Z,8.18
2022-09-07T09:46:13.126Z,8.10
2022-09-07T09:48:41.570Z,7.57
2022-09-07T09:54:07.378Z,7.40
2022-09-07T09:56:39.868Z,7.50
2022-09-07T10:05:39.153Z,7.20
2022-09-07T10:08:16.725Z,6.93
2022-09-07T10:10:55.492Z,6.55
2022-09-07T10:13:58.056Z,5.67
2022-09-07T10:16:40.789Z,7.05
2022-09-07T10:19:24.237Z,6.35
2022-09-07T10:21:59.981Z,6.25
2022-09-07T10:24:31.925Z,6.47
2022-09-07T10:26:58.339Z,6.00
2022-09-07T10:29:36.061Z,5.43
2022-09-07T10:32:08.732Z,4.10
2022-09-07T10:35:05.200Z,3.70
2022-09-07T10:37:35.576Z,4.65
2022-09-07T10:40:01.995Z,4.10
2022-09-07T10:42:35.847Z,3.47
2022-09-07T10:45:18.381Z,3.55
2022-09-07T10:47:54.494Z,3.40
2022-09-07T10:50:50.108Z,3.40
2022-09-07T10:53:46.773Z,2.87
2022-09-07T10:56:25.765Z,3.55
2022-09-07T11:02:39.223Z,3.88
2022-09-07T11:05:36.055Z,2.83
2022-09-07T11:08:27.272Z,2.37
2022-09-07T11:11:07.539Z,3.10
2022-09-07T11:13:55.626Z,2.90
2022-09-07T11:19:36.973Z,2.67
2022-09-07T11:22:32.960Z,2.70
2022-09-07T11:25:31.049Z,2.50
2022-09-07T11:28:45.639Z,1.83
2022-09-07T11:31:22.083Z,2.20
2022-09-07T11:36:53.727Z,1.63
2022-09-07T11:39:26.841Z,1.58
2022-09-07T11:42:42.823Z,2.22
2022-09-07T11:44:56.054Z,1.40
2022-09-07T11:47:38.627Z,1.77
2022-09-07T11:50:14.630Z,2.30
2022-09-07T11:52:44.527Z,1.33
2022-09-07T11:55:20.525Z,1.40
2022-09-07T11:58:24.537Z,1.77
2022-09-07T12:01:09.942Z,1.70
2022-09-07T12:04:04.396Z,1.70
2022-09-07T12:07:02.873Z,1.83
2022-09-07T12:09:59.901Z,1.40
2022-09-07T12:13:10.466Z,1.73
2022-09-07T12:15:50.567Z,1.60
2022-09-07T12:18:33.461Z,1.73
2022-09-07T12:21:00.170Z,1.65
2022-09-07T12:23:30.047Z,1.80
2022-09-07T12:26:33.554Z,1.40
2022-09-07T12:28:59.935Z,1.77
2022-09-07T12:34:35.282Z,2.20
2022-09-07T12:37:05.338Z,2.03
2022-09-07T12:39:33.211Z,1.60
2022-09-07T12:45:30.489Z,1.90
2022-09-07T12:48:04.327Z,1.58
2022-09-07T12:50:39.247Z,2.03
2022-09-07T12:53:34.924Z,1.83
2022-09-07T12:56:26.089Z,1.80
2022-09-07T12:59:16.016Z,2.00
2022-09-07T13:02:14.514Z,1.63
2022-09-07T13:04:52.827Z,1.52
2022-09-07T13:08:06.981Z,1.42
2022-09-07T13:10:37.736Z,1.60
2022-09-07T13:14:02.611Z,1.63
2022-09-07T13:16:06.482Z,1.50
2022-09-07T13:18:53.192Z,1.00
2022-09-07T13:21:40.905Z,1.40
2022-09-07T13:27:05.467Z,1.60
2022-09-07T13:29:40.878Z,1.50
2022-09-07T13:32:17.505Z,1.33
2022-09-07T13:35:01.970Z,1.17
2022-09-07T13:37:30.610Z,1.27
2022-09-07T13:39:58.603Z,1.40
2022-09-07T13:42:30.161Z,1.08
2022-09-07T13:45:02.036Z,1.08
2022-09-07T13:47:28.390Z,1.08
2022-09-07T13:49:57.460Z,0.90
2022-09-07T13:52:30.480Z,1.43
2022-09-07T13:55:26.224Z,0.90
2022-09-07T13:58:17.935Z,0.50
2022-09-07T14:00:59.541Z,0.65
2022-09-07T14:03:30.184Z,0.55
2022-09-07T14:06:20.770Z,0.70
2022-09-07T14:09:13.357Z,0.68
2022-09-07T14:11:47.055Z,0.50
2022-09-07T14:14:24.229Z,0.98
2022-09-07T14:17:02.638Z,0.50
2022-09-07T14:19:45.137Z,0.50
2022-09-07T14:22:17.994Z,0.52
2022-09-07T14:24:50.622Z,0.60
2022-09-07T14:27:19.922Z,0.90
2022-09-07T14:29:46.421Z,0.68
2022-09-07T14:32:17.248Z,0.70
2022-09-07T14:34:44.942Z,0.75
2022-09-07T14:37:16.965Z,0.68
2022-09-07T14:39:45.989Z,0.60
2022-09-07T14:42:17.841Z,0.70
2022-09-07T14:44:44.917Z,0.70
2022-09-07T14:47:33.853Z,0.43
2022-09-07T14:50:06.215Z,0.55
2022-09-07T14:53:33.157Z,0.63
2022-09-07T14:55:34.889Z,0.50
2022-09-07T14:58:13.482Z,0.70
2022-09-07T15:00:40.969Z,0.63
2022-09-07T15:03:29.278Z,0.80
2022-09-07T15:06:00.376Z,0.80
2022-09-07T15:08:46.799Z,0.90
2022-09-07T15:14:03.536Z,0.70
2022-09-07T15:16:32.503Z,0.75
2022-09-07T15:19:03.603Z,1.00
2022-09-07T15:21:36.532Z,0.95
2022-09-07T15:24:03.980Z,1.00
2022-09-07T15:29:29.666Z,1.10
2022-09-07T15:32:03.436Z,1.15
2022-09-07T15:34:32.219Z,1.20
2022-09-07T15:37:00.305Z,1.03
2022-09-07T15:39:29.788Z,1.02
2022-09-07T15:41:57.273Z,0.98
2022-09-07T15:44:26.382Z,1.50
2022-09-07T15:49:47.351Z,1.00
2022-09-07T15:52:15.961Z,1.42
2022-09-07T15:54:43.512Z,1.63
2022-09-07T15:59:56.718Z,0.85
2022-09-07T16:05:10.312Z,1.20
2022-09-07T16:10:24.375Z,1.00
2022-09-07T16:15:45.526Z,1.00
2022-09-07T16:18:16.468Z,1.20
2022-09-07T16:20:44.109Z,0.88
2022-09-07T16:23:14.301Z,0.95
2022-09-07T16:25:43.295Z,0.90
2022-09-07T16:28:10.715Z,0.80
2022-09-07T16:30:40.708Z,0.70
2022-09-07T16:33:07.977Z,0.77
2022-09-07T16:35:34.502Z,0.80
2022-09-07T16:40:50.110Z,1.03
2022-09-07T16:43:17.280Z,0.82
2022-09-07T16:48:31.571Z,1.00
2022-09-07T16:51:02.076Z,0.90
2022-09-07T16:53:31.141Z,0.70
2022-09-07T16:56:10.186Z,0.85
2022-09-07T16:58:40.238Z,0.70
2022-09-07T17:01:08.682Z,0.80
2022-09-07T17:03:36.756Z,0.90
2022-09-07T17:06:05.166Z,0.70
2022-09-07T17:08:33.164Z,0.70
2022-09-07T17:11:05.690Z,0.80
2022-09-07T17:13:34.225Z,1.00
2022-09-07T17:16:04.627Z,0.73
2022-09-07T17:21:20.177Z,0.52
2022-09-07T17:23:54.439Z,0.77
2022-09-07T17:26:22.561Z,0.80
2022-09-07T17:28:50.696Z,0.98
2022-09-07T17:34:11.334Z,1.52
2022-09-07T17:36:37.765Z,0.82
2022-09-07T17:39:20.092Z,0.70
2022-09-07T17:41:48.357Z,1.13
2022-09-07T17:44:14.840Z,1.13
2022-09-07T17:46:41.267Z,1.10
2022-09-07T17:49:12.141Z,1.63
2022-09-07T17:51:38.973Z,1.00
2022-09-07T17:54:10.927Z,0.77
2022-09-07T17:56:39.209Z,0.80
2022-09-07T18:01:53.900Z,0.75
2022-09-07T18:04:20.995Z,0.90
2022-09-07T18:06:47.520Z,0.80
2022-09-07T18:09:14.065Z,1.00
2022-09-07T18:11:47.342Z,0.65
2022-09-07T18:14:15.149Z,0.93
2022-09-07T18:16:43.297Z,1.00
2022-09-07T18:19:11.592Z,0.90
2022-09-07T18:21:41.033Z,0.80
2022-09-07T18:24:13.863Z,0.90
2022-09-07T18:26:40.954Z,0.68
2022-09-07T18:29:15.893Z,0.95
2022-09-07T18:31:54.467Z,0.55
2022-09-07T18:34:21.162Z,0.87
2022-09-07T18:36:47.716Z,0.80
2022-09-07T18:39:14.228Z,0.80
2022-09-07T18:41:41.988Z,0.73
2022-09-07T18:45:27.071Z,0.80
2022-09-07T18:46:54.853Z,0.70
2022-09-07T18:49:21.258Z,0.90
2022-09-07T18:54:34.154Z,0.85
2022-09-07T18:57:00.601Z,0.80
2022-09-07T18:59:27.128Z,0.83
2022-09-07T19:01:54.108Z,0.80
2022-09-07T19:04:21.605Z,0.80
2022-09-07T19:06:48.140Z,0.70
2022-09-07T19:09:14.899Z,0.70
2022-09-07T19:11:42.163Z,1.63
2022-09-07T19:14:08.816Z,0.80
2022-09-07T19:16:35.786Z,1.20
2022-09-07T19:19:06.141Z,1.08
2022-09-07T19:21:38.821Z,0.98
2022-09-07T19:24:07.848Z,0.83
2022-09-07T19:26:40.691Z,0.95
2022-09-07T19:29:15.838Z,0.90
2022-09-07T19:32:05.478Z,0.85
2022-09-07T19:34:32.637Z,0.85
2022-09-07T19:36:59.319Z,0.87
2022-09-07T19:39:25.784Z,0.93
2022-09-07T19:41:52.255Z,0.98
2022-09-07T19:44:18.682Z,0.90
2022-09-07T19:46:45.245Z,0.80
2022-09-07T19:49:12.414Z,0.90
2022-09-07T19:51:39.596Z,0.80
2022-09-07T19:54:06.477Z,0.82
2022-09-07T19:56:32.973Z,1.10
2022-09-07T19:58:59.417Z,1.02
2022-09-07T20:01:25.940Z,0.90
2022-09-07T20:03:58.219Z,1.10
2022-09-07T20:06:25.342Z,1.20
2022-09-07T20:08:51.860Z,1.15
2022-09-07T20:11:18.820Z,1.05
2022-09-07T20:13:45.699Z,1.00
2022-09-07T20:16:14.508Z,0.80
2022-09-07T20:18:41.233Z,0.90
2022-09-07T20:21:13.297Z,0.82
2022-09-07T20:23:40.228Z,0.90
2022-09-07T20:26:09.412Z,0.97
2022-09-07T20:28:37.530Z,1.08
2022-09-07T20:31:13.397Z,0.70
2022-09-07T20:33:41.359Z,0.90
2022-09-07T20:36:13.494Z,1.08
2022-09-07T20:38:42.361Z,1.00
2022-09-07T20:41:14.161Z,1.10
2022-09-07T20:43:40.591Z,1.10
2022-09-07T20:46:09.595Z,0.88
2022-09-07T20:48:39.853Z,1.10
2022-09-07T20:51:10.777Z,0.97
2022-09-07T20:53:38.406Z,1.17
2022-09-07T20:56:08.115Z,0.82
2022-09-07T20:58:35.358Z,1.02
2022-09-07T21:01:02.867Z,1.20
2022-09-07T21:03:29.608Z,1.00
2022-09-07T21:06:01.469Z,1.10
2022-09-07T21:08:27.934Z,1.10
2022-09-07T21:10:54.519Z,1.30
2022-09-07T21:13:20.918Z,1.20
2022-09-07T21:15:47.489Z,1.10
2022-09-07T21:18:16.352Z,1.45
2022-09-07T21:20:57.889Z,1.10
2022-09-07T21:23:32.213Z,1.30
2022-09-07T21:25:59.762Z,1.20
2022-09-07T21:28:26.850Z,1.20
2022-09-07T21:31:08.038Z,1.10
2022-09-07T21:33:36.292Z,1.13
2022-09-07T21:36:10.074Z,1.10
2022-09-07T21:38:38.200Z,1.02
2022-09-07T21:41:09.423Z,1.00
2022-09-07T21:43:36.154Z,0.90
2022-09-07T21:46:18.984Z,1.00
2022-09-07T21:48:46.033Z,1.20
2022-09-07T21:51:14.298Z,1.30
2022-09-07T21:53:41.294Z,1.10
2022-09-07T21:56:11.226Z,1.00
2022-09-07T21:58:38.495Z,1.10
2022-09-07T22:01:11.686Z,1.20
2022-09-07T22:03:39.701Z,1.38
2022-09-07T22:06:07.489Z,1.40
2022-09-07T22:08:38.346Z,1.52
2022-09-07T22:11:10.853Z,1.33
2022-09-07T22:13:38.064Z,1.00
2022-09-07T22:16:06.777Z,1.00
2022-09-07T22:18:33.482Z,1.10
2022-09-07T22:21:11.113Z,0.95
2022-09-07T22:23:39.942Z,0.80
2022-09-07T22:26:07.275Z,0.90
2022-09-07T22:28:34.651Z,1.13
2022-09-07T22:31:08.488Z,1.10
2022-09-07T22:33:34.956Z,1.42
2022-09-07T22:36:15.443Z,1.30
2022-09-07T22:38:44.177Z,1.20
2022-09-07T22:41:14.286Z,1.35
2022-09-07T22:43:40.866Z,1.90
2022-09-07T22:46:07.648Z,1.35
2022-09-07T22:48:34.264Z,1.40
2022-09-07T22:51:01.911Z,1.30
2022-09-07T22:53:30.128Z,1.50
2022-09-07T22:55:57.169Z,1.60
2022-09-07T22:58:23.847Z,1.67
2022-09-07T23:00:51.410Z,1.90
2022-09-07T23:03:18.085Z,1.65
2022-09-07T23:05:44.518Z,1.70
2022-09-07T23:08:10.933Z,1.50
2022-09-07T23:10:37.859Z,1.83
2022-09-07T23:13:04.833Z,2.08
2022-09-07T23:15:31.477Z,2.58
2022-09-07T23:17:57.927Z,1.95
2022-09-07T23:20:25.465Z,1.97
2022-09-07T23:22:52.577Z,1.70
2022-09-07T23:25:19.279Z,2.03
2022-09-07T23:27:45.786Z,2.55
2022-09-07T23:30:12.645Z,2.30
2022-09-07T23:32:39.050Z,1.77
2022-09-07T23:35:05.856Z,1.45
2022-09-07T23:37:32.299Z,1.27
2022-09-07T23:39:58.775Z,1.80
2022-09-07T23:42:25.245Z,1.63
2022-09-07T23:44:51.645Z,1.60
2022-09-07T23:47:18.329Z,1.75
2022-09-07T23:49:44.855Z,1.73
2022-09-07T23:52:11.292Z,1.70
2022-09-07T23:54:37.685Z,1.40
2022-09-07T23:57:04.269Z,1.50
2022-09-07T23:59:33.757Z,1.63
